createdAt,value
2017-12-31T12:13:48.551Z,15.45
2017-12-31T12:14:50.407Z,11.27
2017-12-31T12:15:51.467Z,11.38
2017-12-31T12:16:53.275Z,12.00
2017-12-31T12:17:54.424Z,13.20
2017-12-31T12:18:56.259Z,10.55
2017-12-31T12:19:57.390Z,9.98
2017-12-31T12:20:58.552Z,12.52
2017-12-31T12:21:59.713Z,12.10
2017-12-31T12:23:00.808Z,10.38
2017-12-31T12:24:01.898Z,11.27
2017-12-31T12:25:03.003Z,12.18
2017-12-31T12:26:04.124Z,11.45
2017-12-31T12:27:05.947Z,15.90
2017-12-31T12:28:07.043Z,15.00
2017-12-31T12:29:08.162Z,12.63
2017-12-31T12:30:09.282Z,11.20
2017-12-31T12:31:10.399Z,12.57
2017-12-31T12:32:11.508Z,13.60
2017-12-31T12:33:12.588Z,9.55
2017-12-31T12:34:13.669Z,9.30
2017-12-31T12:35:14.745Z,8.82
2017-12-31T12:36:15.840Z,10.20
2017-12-31T12:37:16.944Z,8.02
2017-12-31T12:38:18.045Z,11.70
2017-12-31T12:39:19.140Z,9.48
2017-12-31T12:40:20.236Z,11.00
2017-12-31T12:41:21.315Z,8.93
2017-12-31T12:42:22.431Z,11.32
2017-12-31T12:43:23.577Z,8.65
2017-12-31T12:44:24.667Z,10.95
2017-12-31T12:45:25.772Z,7.60
2017-12-31T12:46:26.847Z,11.52
2017-12-31T12:47:27.918Z,9.32
2017-12-31T12:48:29.027Z,10.70
2017-12-31T12:49:30.101Z,9.43
2017-12-31T12:50:31.955Z,9.98
2017-12-31T12:51:33.035Z,13.13
2017-12-31T12:52:34.124Z,10.48
2017-12-31T12:53:35.238Z,7.65
2017-12-31T12:54:37.055Z,10.50
2017-12-31T12:55:38.119Z,12.35
2017-12-31T12:56:39.943Z,9.95
2017-12-31T12:57:41.090Z,11.05
2017-12-31T12:58:42.160Z,8.98
2017-12-31T12:59:43.234Z,11.50
2017-12-31T13:00:44.370Z,9.95
2017-12-31T13:01:45.444Z,12.88
2017-12-31T13:02:46.572Z,10.60
2017-12-31T13:03:48.412Z,9.55
2017-12-31T13:04:50.244Z,8.55
2017-12-31T13:05:51.327Z,9.50
2017-12-31T13:06:52.406Z,7.35
2017-12-31T13:07:53.540Z,9.48
2017-12-31T13:08:54.667Z,10.90
2017-12-31T13:09:55.752Z,12.40
2017-12-31T13:10:56.945Z,9.63
2017-12-31T13:11:58.023Z,7.75
2017-12-31T13:12:59.102Z,10.02
2017-12-31T13:14:00.180Z,11.70
2017-12-31T13:15:01.282Z,12.07
2017-12-31T13:16:02.450Z,8.52
2017-12-31T13:17:03.535Z,9.82
2017-12-31T13:18:04.672Z,10.23
2017-12-31T13:19:05.815Z,10.65
2017-12-31T13:20:06.941Z,7.87
2017-12-31T13:21:08.015Z,11.77
2017-12-31T13:22:09.104Z,10.50
2017-12-31T13:23:10.188Z,11.60
2017-12-31T13:24:11.338Z,10.13
2017-12-31T13:25:12.584Z,9.68
2017-12-31T13:26:16.092Z,7.10
2017-12-31T13:27:18.159Z,7.12
2017-12-31T13:28:19.898Z,9.60
2017-12-31T13:29:21.541Z,10.20
2017-12-31T13:30:23.924Z,8.32
2017-12-31T13:31:26.063Z,10.80
2017-12-31T13:32:27.214Z,11.12
2017-12-31T13:33:28.379Z,11.50
2017-12-31T13:34:29.496Z,15.00
2017-12-31T13:35:30.604Z,12.13
2017-12-31T13:36:31.754Z,10.27
2017-12-31T13:37:33.613Z,8.70
2017-12-31T13:38:34.723Z,11.12
2017-12-31T13:39:36.535Z,11.75
2017-12-31T13:40:37.778Z,10.63
2017-12-31T13:41:38.865Z,12.20
2017-12-31T13:42:39.995Z,8.30
2017-12-31T13:43:41.101Z,9.85
2017-12-31T13:44:42.207Z,8.43
2017-12-31T13:45:43.325Z,10.23
2017-12-31T13:46:44.478Z,10.45
2017-12-31T13:47:45.571Z,10.55
2017-12-31T13:48:46.684Z,21.83
2017-12-31T13:49:47.767Z,13.40
2017-12-31T13:50:48.942Z,10.02
2017-12-31T13:51:50.349Z,11.15
2017-12-31T13:52:51.477Z,7.57
2017-12-31T13:53:52.621Z,8.52
2017-12-31T13:54:53.723Z,10.10
2017-12-31T13:55:54.793Z,10.70
2017-12-31T13:56:55.875Z,10.15
2017-12-31T13:57:56.951Z,10.70
2017-12-31T13:58:58.114Z,11.55
2017-12-31T13:59:59.258Z,13.82
2017-12-31T14:01:00.700Z,11.88
2017-12-31T14:02:01.896Z,9.35
2017-12-31T14:03:02.998Z,11.88
2017-12-31T14:04:04.056Z,10.10
2017-12-31T14:05:05.123Z,11.25
2017-12-31T14:06:06.199Z,11.25
2017-12-31T14:07:07.291Z,7.95
2017-12-31T14:08:09.122Z,9.43
2017-12-31T14:09:10.251Z,9.15
2017-12-31T14:10:11.366Z,8.40
2017-12-31T14:11:12.447Z,11.00
2017-12-31T14:12:14.320Z,11.68
2017-12-31T14:13:15.419Z,10.02
2017-12-31T14:14:16.509Z,8.30
2017-12-31T14:15:17.639Z,11.12
2017-12-31T14:16:18.729Z,10.80
2017-12-31T14:17:19.881Z,10.48
2017-12-31T14:18:21.056Z,8.77
2017-12-31T14:19:22.161Z,9.88
2017-12-31T14:20:23.305Z,9.90
2017-12-31T14:21:24.436Z,9.07
2017-12-31T14:22:25.528Z,8.48
2017-12-31T14:23:26.627Z,9.85
2017-12-31T14:24:27.756Z,10.57
2017-12-31T14:25:28.876Z,7.50
2017-12-31T14:26:29.973Z,8.57
2017-12-31T14:27:31.058Z,10.25
2017-12-31T14:28:32.181Z,7.50
2017-12-31T14:29:33.307Z,11.45
2017-12-31T14:30:34.391Z,8.85
2017-12-31T14:31:36.253Z,8.80
2017-12-31T14:32:37.357Z,11.12
2017-12-31T14:33:38.477Z,11.63
2017-12-31T14:34:39.554Z,10.13
2017-12-31T14:35:40.656Z,10.45
2017-12-31T14:36:41.738Z,9.68
2017-12-31T14:37:42.850Z,13.20
2017-12-31T14:38:43.980Z,12.23
2017-12-31T14:39:45.071Z,10.27
2017-12-31T14:40:46.194Z,11.30
2017-12-31T14:41:47.283Z,9.48
2017-12-31T14:42:48.423Z,8.68
2017-12-31T14:43:49.541Z,10.60
2017-12-31T14:44:50.636Z,11.93
2017-12-31T14:45:51.748Z,9.70
2017-12-31T14:46:52.992Z,11.45
2017-12-31T14:47:54.950Z,11.80
2017-12-31T14:48:56.069Z,10.00
2017-12-31T14:49:57.173Z,10.90
2017-12-31T14:50:58.268Z,10.75
2017-12-31T14:51:59.415Z,11.27
2017-12-31T14:53:00.613Z,11.45
2017-12-31T14:54:01.733Z,8.57
2017-12-31T14:55:02.855Z,11.35
2017-12-31T14:56:03.970Z,9.70
2017-12-31T14:57:05.099Z,12.25
2017-12-31T14:58:06.237Z,14.30
2017-12-31T14:59:07.331Z,8.98
2017-12-31T15:00:08.408Z,12.73
2017-12-31T15:01:09.554Z,13.20
2017-12-31T15:02:10.628Z,8.50
2017-12-31T15:03:11.789Z,9.15
2017-12-31T15:04:12.908Z,11.40
2017-12-31T15:05:14.786Z,10.10
2017-12-31T15:06:15.876Z,10.95
2017-12-31T15:07:17.028Z,12.43
2017-12-31T15:08:18.863Z,14.10
2017-12-31T15:09:19.968Z,9.85
2017-12-31T15:10:21.076Z,11.90
2017-12-31T15:11:22.314Z,14.02
2017-12-31T15:12:24.208Z,14.68
2017-12-31T15:13:25.348Z,13.60
2017-12-31T15:14:26.430Z,11.40
2017-12-31T15:15:27.511Z,9.52
2017-12-31T15:16:28.631Z,12.15
2017-12-31T15:17:29.768Z,10.75
2017-12-31T15:18:30.895Z,10.77
2017-12-31T15:19:32.044Z,9.73
2017-12-31T15:20:33.206Z,9.07
2017-12-31T15:21:35.020Z,8.60
2017-12-31T15:22:36.137Z,11.98
2017-12-31T15:23:37.258Z,9.00
2017-12-31T15:24:38.338Z,9.40
2017-12-31T15:25:39.420Z,12.93
2017-12-31T15:26:40.487Z,11.15
2017-12-31T15:27:41.607Z,13.35
2017-12-31T15:28:42.703Z,7.80
2017-12-31T15:29:43.821Z,9.65
2017-12-31T15:30:45.655Z,8.07
2017-12-31T15:31:47.488Z,10.52
2017-12-31T15:32:48.637Z,12.50
2017-12-31T15:33:49.731Z,11.30
2017-12-31T15:34:50.859Z,10.77
2017-12-31T15:35:51.968Z,8.93
2017-12-31T15:36:53.246Z,9.65
2017-12-31T15:37:55.104Z,12.20
2017-12-31T15:38:56.251Z,8.55
2017-12-31T15:39:57.337Z,10.65
2017-12-31T15:40:58.433Z,10.90
2017-12-31T15:42:00.296Z,14.98
2017-12-31T15:43:01.423Z,13.50
2017-12-31T15:44:02.549Z,14.60
2017-12-31T15:45:03.690Z,17.20
2017-12-31T15:46:04.773Z,30.05
2017-12-31T15:47:05.896Z,20.25
2017-12-31T15:48:07.023Z,23.33
2017-12-31T15:49:08.156Z,17.77
2017-12-31T15:50:09.214Z,16.73
2017-12-31T15:51:10.350Z,20.55
2017-12-31T15:52:11.482Z,16.20
2017-12-31T15:53:12.605Z,17.27
2017-12-31T15:54:13.743Z,15.93
2017-12-31T15:55:14.891Z,17.95
2017-12-31T15:56:15.977Z,15.93
2017-12-31T15:57:17.115Z,12.98
2017-12-31T15:58:18.485Z,11.48
2017-12-31T15:59:20.051Z,13.77
2017-12-31T16:00:22.036Z,10.48
2017-12-31T16:01:23.228Z,13.25
2017-12-31T16:02:24.551Z,12.00
2017-12-31T16:03:25.749Z,11.52
2017-12-31T16:04:26.901Z,13.98
2017-12-31T16:05:28.025Z,13.18
2017-12-31T16:06:29.149Z,10.63
2017-12-31T16:07:30.232Z,13.38
2017-12-31T16:08:31.307Z,13.20
2017-12-31T16:09:32.446Z,14.55
2017-12-31T16:10:33.536Z,24.92
2017-12-31T16:11:34.641Z,23.10
2017-12-31T16:12:35.711Z,23.90
2017-12-31T16:13:36.864Z,19.48
2017-12-31T16:14:37.993Z,21.90
2017-12-31T16:15:39.115Z,30.35
2017-12-31T16:16:40.273Z,24.95
2017-12-31T16:17:41.349Z,18.70
2017-12-31T16:18:42.505Z,23.23
2017-12-31T16:19:43.645Z,23.08
2017-12-31T16:20:44.767Z,24.12
2017-12-31T16:21:45.872Z,32.97
2017-12-31T16:22:46.955Z,25.73
2017-12-31T16:23:48.810Z,24.05
2017-12-31T16:24:49.937Z,33.45
2017-12-31T16:25:51.069Z,17.70
2017-12-31T16:26:52.875Z,15.70
2017-12-31T16:27:53.975Z,15.35
2017-12-31T16:28:55.443Z,15.13
2017-12-31T16:29:56.783Z,13.45
2017-12-31T16:30:57.981Z,15.95
2017-12-31T16:31:59.126Z,14.15
2017-12-31T16:33:00.278Z,15.70
2017-12-31T16:35:11.754Z,16.23
2017-12-31T16:36:12.886Z,15.63
2017-12-31T16:37:14.022Z,10.45
2017-12-31T16:38:15.099Z,15.13
2017-12-31T16:39:16.184Z,16.42
2017-12-31T16:40:17.258Z,13.60
2017-12-31T16:41:18.319Z,16.08
2017-12-31T16:42:19.395Z,17.50
2017-12-31T16:43:20.467Z,17.50
2017-12-31T16:44:21.556Z,18.27
2017-12-31T16:45:22.683Z,11.65
2017-12-31T16:46:23.764Z,16.05
2017-12-31T16:47:24.855Z,17.45
2017-12-31T16:48:25.996Z,22.05
2017-12-31T16:49:27.130Z,13.80
2017-12-31T16:50:28.272Z,14.85
2017-12-31T16:51:29.347Z,16.25
2017-12-31T16:52:31.225Z,17.17
2017-12-31T16:53:32.329Z,16.95
2017-12-31T16:54:33.463Z,13.25
2017-12-31T16:55:35.365Z,13.32
2017-12-31T16:56:36.471Z,17.48
2017-12-31T16:57:37.700Z,17.20
2017-12-31T16:58:39.131Z,23.75
2017-12-31T16:59:40.252Z,18.00
2017-12-31T17:00:41.432Z,18.58
2017-12-31T17:01:43.333Z,17.62
2017-12-31T17:02:44.415Z,22.10
2017-12-31T17:03:45.523Z,15.85
2017-12-31T17:04:46.607Z,22.10
2017-12-31T17:05:47.741Z,18.60
2017-12-31T17:06:48.884Z,17.58
2017-12-31T17:07:52.596Z,19.10
2017-12-31T17:08:57.480Z,18.73
2017-12-31T17:10:06.468Z,20.15
2017-12-31T17:11:09.747Z,18.92
2017-12-31T17:12:11.787Z,19.75
2017-12-31T17:13:15.060Z,18.23
2017-12-31T17:14:19.889Z,18.20
2017-12-31T17:15:21.493Z,19.15
2017-12-31T17:16:23.011Z,15.90
2017-12-31T17:17:25.255Z,15.73
2017-12-31T17:18:26.543Z,22.98
2017-12-31T17:19:28.801Z,22.73
2017-12-31T17:20:31.890Z,19.65
2017-12-31T17:21:33.040Z,21.75
2017-12-31T17:22:34.206Z,22.65
2017-12-31T17:23:35.272Z,36.55
2017-12-31T17:24:36.335Z,24.15
2017-12-31T17:25:38.153Z,16.37
2017-12-31T17:26:39.238Z,15.77
2017-12-31T17:27:40.362Z,15.23
2017-12-31T17:28:41.431Z,14.98
2017-12-31T17:29:42.523Z,13.90
2017-12-31T17:30:43.640Z,16.48
2017-12-31T17:31:45.443Z,16.20
2017-12-31T17:32:46.593Z,14.82
2017-12-31T17:33:47.682Z,11.82
2017-12-31T17:34:48.886Z,15.57
2017-12-31T17:35:49.963Z,11.35
2017-12-31T17:36:51.017Z,13.48
2017-12-31T17:37:52.088Z,15.02
2017-12-31T17:38:53.914Z,16.67
2017-12-31T17:39:54.971Z,17.30
2017-12-31T17:40:56.817Z,14.73
2017-12-31T17:41:57.921Z,14.73
2017-12-31T17:42:59.008Z,18.87
2017-12-31T17:44:00.141Z,26.20
2017-12-31T17:45:01.269Z,28.10
2017-12-31T17:46:02.358Z,37.30
2017-12-31T17:47:03.452Z,25.15
2017-12-31T17:48:04.542Z,20.73
2017-12-31T17:49:05.698Z,19.20
2017-12-31T17:50:06.760Z,19.90
2017-12-31T17:51:07.856Z,18.85
2017-12-31T17:52:08.941Z,19.08
2017-12-31T17:53:10.054Z,16.98
2017-12-31T17:54:11.160Z,19.35
2017-12-31T17:55:12.273Z,16.65
2017-12-31T17:56:13.383Z,21.48
2017-12-31T17:57:14.513Z,28.23
2017-12-31T17:58:15.572Z,30.20
2017-12-31T17:59:17.376Z,24.33
2017-12-31T18:00:18.502Z,27.08
2017-12-31T18:01:19.580Z,31.98
2017-12-31T18:02:20.702Z,22.10
2017-12-31T18:03:21.795Z,20.37
2017-12-31T18:04:22.879Z,18.15
2017-12-31T18:05:24.008Z,16.85
2017-12-31T18:06:25.095Z,17.95
2017-12-31T18:07:26.149Z,17.02
2017-12-31T18:08:27.227Z,23.20
2017-12-31T18:09:28.308Z,21.20
2017-12-31T18:10:29.418Z,16.17
2017-12-31T18:11:31.491Z,21.08
2017-12-31T18:12:32.601Z,23.92
2017-12-31T18:13:33.655Z,15.45
2017-12-31T18:14:34.747Z,20.58
2017-12-31T18:15:35.908Z,18.30
2017-12-31T18:16:37.019Z,17.45
2017-12-31T18:17:38.121Z,20.05
2017-12-31T18:18:39.187Z,20.55
2017-12-31T18:19:40.267Z,20.35
2017-12-31T18:20:41.355Z,19.17
2017-12-31T18:21:42.487Z,18.40
2017-12-31T18:22:43.606Z,19.87
2017-12-31T18:23:44.733Z,24.33
2017-12-31T18:24:45.873Z,15.90
2017-12-31T18:25:46.941Z,14.55
2017-12-31T18:26:48.075Z,16.20
2017-12-31T18:27:49.131Z,20.42
2017-12-31T18:28:50.219Z,17.50
2017-12-31T18:29:51.291Z,17.35
2017-12-31T18:30:52.367Z,16.73
2017-12-31T18:31:53.436Z,15.20
2017-12-31T18:32:54.516Z,17.52
2017-12-31T18:33:56.322Z,15.27
2017-12-31T18:34:57.411Z,17.37
2017-12-31T18:35:58.527Z,17.02
2017-12-31T18:37:00.425Z,19.42
2017-12-31T18:38:01.491Z,17.50
2017-12-31T18:39:02.625Z,14.90
2017-12-31T18:40:03.715Z,19.12
2017-12-31T18:41:04.785Z,18.85
2017-12-31T18:42:05.859Z,17.08
2017-12-31T18:43:06.969Z,18.05
2017-12-31T18:44:08.045Z,14.48
2017-12-31T18:45:09.095Z,19.58
2017-12-31T18:46:10.146Z,17.23
2017-12-31T18:47:11.215Z,15.95
2017-12-31T18:48:12.299Z,19.95
2017-12-31T18:49:13.367Z,20.37
2017-12-31T18:50:14.447Z,19.05
2017-12-31T18:51:15.504Z,16.87
2017-12-31T18:52:16.619Z,21.25
2017-12-31T18:53:17.718Z,21.40
2017-12-31T18:54:18.803Z,22.37
2017-12-31T18:55:19.925Z,22.45
2017-12-31T18:56:21.020Z,19.92
2017-12-31T18:57:22.136Z,21.85
2017-12-31T18:58:23.200Z,20.83
2017-12-31T18:59:24.259Z,19.12
2017-12-31T19:00:25.339Z,17.65
2017-12-31T19:01:26.481Z,15.00
2017-12-31T19:02:27.558Z,20.17
2017-12-31T19:03:28.675Z,17.02
2017-12-31T19:04:29.797Z,23.40
2017-12-31T19:05:30.855Z,41.20
2017-12-31T19:06:31.918Z,46.92
2017-12-31T19:07:33.731Z,34.33
2017-12-31T19:08:34.835Z,31.15
2017-12-31T19:09:35.919Z,22.92
2017-12-31T19:10:36.978Z,27.27
2017-12-31T19:11:38.033Z,22.33
2017-12-31T19:12:39.172Z,21.90
2017-12-31T19:13:40.290Z,21.17
2017-12-31T19:14:41.347Z,23.02
2017-12-31T19:15:42.454Z,23.90
2017-12-31T19:16:43.528Z,21.00
2017-12-31T19:17:44.599Z,19.70
2017-12-31T19:18:45.704Z,16.50
2017-12-31T19:19:46.784Z,17.60
2017-12-31T19:20:47.897Z,13.88
2017-12-31T19:21:48.958Z,18.52
2017-12-31T19:22:50.035Z,17.20
2017-12-31T19:23:51.091Z,15.25
2017-12-31T19:24:52.899Z,16.95
2017-12-31T19:25:54.011Z,18.73
2017-12-31T19:26:55.088Z,18.17
2017-12-31T19:27:56.189Z,16.10
2017-12-31T19:28:57.290Z,17.85
2017-12-31T19:29:58.377Z,18.27
2017-12-31T19:30:59.493Z,16.85
2017-12-31T19:32:00.559Z,18.12
2017-12-31T19:33:01.631Z,15.38
2017-12-31T19:34:03.482Z,17.45
2017-12-31T19:35:04.567Z,16.33
2017-12-31T19:36:05.630Z,21.02
2017-12-31T19:37:06.704Z,18.90
2017-12-31T19:38:07.771Z,16.60
2017-12-31T19:39:08.874Z,18.52
2017-12-31T19:40:09.942Z,20.35
2017-12-31T19:41:11.751Z,17.83
2017-12-31T19:42:12.820Z,26.12
2017-12-31T19:43:14.676Z,20.15
2017-12-31T19:44:15.825Z,27.95
2017-12-31T19:45:16.907Z,17.20
2017-12-31T19:46:18.047Z,13.18
2017-12-31T19:47:19.120Z,15.52
2017-12-31T19:48:20.251Z,17.35
2017-12-31T19:49:22.114Z,15.45
2017-12-31T19:50:23.231Z,22.77
2017-12-31T19:51:24.320Z,24.50
2017-12-31T19:52:25.416Z,27.85
2017-12-31T19:53:26.533Z,20.70
2017-12-31T19:54:28.347Z,22.52
2017-12-31T19:55:29.505Z,20.15
2017-12-31T19:56:31.378Z,19.35
2017-12-31T19:57:32.502Z,21.00
2017-12-31T19:58:33.587Z,17.50
2017-12-31T19:59:34.647Z,17.15
2017-12-31T20:00:35.775Z,16.40
2017-12-31T20:01:37.659Z,54.95
2017-12-31T20:02:38.739Z,28.15
2017-12-31T20:03:39.820Z,28.15
2017-12-31T20:04:40.957Z,42.03
2017-12-31T20:05:42.083Z,47.38
2017-12-31T20:06:43.202Z,65.37
2017-12-31T20:07:44.313Z,69.75
2017-12-31T20:08:45.375Z,33.90
2017-12-31T20:09:46.479Z,24.27
2017-12-31T20:10:47.547Z,18.70
2017-12-31T20:11:48.659Z,23.17
2017-12-31T20:12:49.805Z,23.45
2017-12-31T20:13:51.677Z,17.40
2017-12-31T20:14:52.803Z,20.70
2017-12-31T20:15:53.881Z,22.10
2017-12-31T20:16:55.082Z,16.67
2017-12-31T20:17:56.160Z,16.73
2017-12-31T20:18:58.039Z,18.12
2017-12-31T20:19:59.127Z,19.62
2017-12-31T20:21:00.238Z,22.33
2017-12-31T20:22:01.360Z,21.58
2017-12-31T20:23:02.477Z,19.90
2017-12-31T20:24:04.299Z,21.98
2017-12-31T20:25:05.383Z,20.20
2017-12-31T20:26:06.459Z,15.20
2017-12-31T20:27:07.629Z,17.62
2017-12-31T20:28:08.742Z,15.02
2017-12-31T20:29:10.596Z,13.75
2017-12-31T20:30:11.727Z,15.75
2017-12-31T20:31:12.834Z,17.37
2017-12-31T20:32:13.974Z,16.50
2017-12-31T20:33:15.102Z,12.05
2017-12-31T20:34:16.214Z,16.42
2017-12-31T20:35:17.344Z,17.92
2017-12-31T20:36:18.432Z,15.00
2017-12-31T20:37:19.551Z,18.62
2017-12-31T20:38:20.703Z,16.58
2017-12-31T20:39:21.839Z,12.63
2017-12-31T20:40:23.706Z,16.35
2017-12-31T20:41:24.776Z,17.20
2017-12-31T20:42:25.899Z,15.98
2017-12-31T20:43:27.011Z,16.80
2017-12-31T20:44:28.075Z,17.08
2017-12-31T20:45:29.211Z,14.95
2017-12-31T20:46:30.339Z,17.00
2017-12-31T20:47:31.453Z,15.82
2017-12-31T20:48:32.579Z,16.90
2017-12-31T20:49:33.705Z,18.62
2017-12-31T20:50:34.779Z,18.62
2017-12-31T20:51:35.871Z,23.25
2017-12-31T20:52:36.983Z,16.45
2017-12-31T20:53:38.110Z,17.52
2017-12-31T20:54:39.240Z,16.95
2017-12-31T20:55:41.048Z,21.42
2017-12-31T20:56:42.159Z,20.35
2017-12-31T20:57:43.282Z,23.17
2017-12-31T20:58:44.417Z,20.58
2017-12-31T20:59:45.535Z,21.10
2017-12-31T21:00:46.650Z,18.02
2017-12-31T21:01:47.675Z,23.10
2017-12-31T21:02:48.833Z,21.33
2017-12-31T21:03:49.937Z,21.52
2017-12-31T21:04:51.007Z,19.87
2017-12-31T21:05:52.135Z,22.00
2017-12-31T21:06:53.246Z,24.40
2017-12-31T21:07:54.371Z,17.67
2017-12-31T21:08:55.499Z,18.42
2017-12-31T21:09:56.619Z,16.20
2017-12-31T21:10:57.687Z,14.05
2017-12-31T21:11:58.759Z,16.80
2017-12-31T21:12:59.881Z,17.55
2017-12-31T21:14:00.952Z,16.55
2017-12-31T21:15:02.085Z,14.55
2017-12-31T21:16:03.235Z,17.30
2017-12-31T21:17:04.305Z,17.08
2017-12-31T21:18:05.384Z,16.08
2017-12-31T21:19:06.533Z,15.60
2017-12-31T21:20:07.586Z,14.80
2017-12-31T21:21:08.694Z,15.55
2017-12-31T21:22:09.823Z,14.13
2017-12-31T21:23:10.895Z,15.02
2017-12-31T21:24:11.973Z,19.25
2017-12-31T21:25:13.058Z,21.60
2017-12-31T21:26:14.935Z,28.17
2017-12-31T21:27:16.054Z,27.23
2017-12-31T21:28:17.182Z,23.87
2017-12-31T21:29:18.297Z,17.62
2017-12-31T21:30:19.456Z,20.37
2017-12-31T21:31:20.540Z,16.60
2017-12-31T21:32:21.669Z,17.87
2017-12-31T21:33:22.739Z,17.27
2017-12-31T21:34:23.862Z,15.82
2017-12-31T21:35:25.008Z,13.77
2017-12-31T21:36:26.126Z,17.48
2017-12-31T21:37:27.298Z,15.88
2017-12-31T21:38:28.363Z,15.07
2017-12-31T21:39:29.506Z,15.05
2017-12-31T21:40:30.686Z,19.70
2017-12-31T21:41:31.803Z,16.70
2017-12-31T21:42:32.946Z,14.35
2017-12-31T21:43:34.801Z,15.10
2017-12-31T21:44:35.883Z,14.50
2017-12-31T21:45:36.988Z,19.45
2017-12-31T21:46:38.116Z,16.77
2017-12-31T21:47:39.320Z,20.92
2017-12-31T21:48:40.409Z,20.48
2017-12-31T21:49:41.562Z,18.67
2017-12-31T21:50:43.411Z,18.50
2017-12-31T21:51:45.299Z,20.45
2017-12-31T21:52:47.179Z,17.75
2017-12-31T21:53:48.251Z,16.05
2017-12-31T21:54:50.105Z,17.37
2017-12-31T21:55:51.163Z,11.30
2017-12-31T21:56:52.284Z,17.25
2017-12-31T21:57:54.089Z,18.25
2017-12-31T21:58:55.190Z,16.17
2017-12-31T21:59:56.314Z,11.73
2017-12-31T22:00:57.413Z,17.80
2017-12-31T22:01:59.273Z,14.80
2017-12-31T22:03:00.339Z,19.80
2017-12-31T22:04:01.459Z,20.12
2017-12-31T22:05:02.651Z,18.73
2017-12-31T22:06:03.775Z,14.90
2017-12-31T22:07:04.859Z,17.42
2017-12-31T22:08:06.069Z,15.77
2017-12-31T22:09:07.188Z,18.12
2017-12-31T22:10:08.256Z,15.55
2017-12-31T22:11:09.374Z,18.27
2017-12-31T22:12:11.179Z,15.80
2017-12-31T22:13:12.238Z,16.27
2017-12-31T22:14:13.351Z,15.70
2017-12-31T22:15:14.423Z,18.80
2017-12-31T22:16:15.487Z,19.00
2017-12-31T22:17:16.602Z,17.33
2017-12-31T22:18:17.702Z,19.45
2017-12-31T22:19:18.807Z,15.23
2017-12-31T22:20:19.871Z,12.10
2017-12-31T22:21:21.739Z,16.70
2017-12-31T22:22:22.799Z,14.18
2017-12-31T22:23:23.890Z,17.67
2017-12-31T22:24:25.730Z,16.62
2017-12-31T22:25:26.832Z,14.38
2017-12-31T22:26:27.906Z,19.58
2017-12-31T22:27:29.752Z,17.35
2017-12-31T22:28:31.623Z,17.05
2017-12-31T22:29:32.692Z,17.52
2017-12-31T22:30:33.772Z,19.33
2017-12-31T22:31:34.873Z,14.38
2017-12-31T22:32:35.986Z,17.60
2017-12-31T22:33:37.105Z,17.35
2017-12-31T22:34:38.216Z,13.80
2017-12-31T22:35:40.023Z,18.37
2017-12-31T22:36:41.068Z,17.05
2017-12-31T22:37:42.921Z,16.75
2017-12-31T22:38:44.035Z,15.55
2017-12-31T22:39:45.161Z,18.58
2017-12-31T22:40:46.277Z,17.30
2017-12-31T22:41:47.344Z,15.57
2017-12-31T22:42:48.453Z,19.95
2017-12-31T22:43:49.532Z,17.98
2017-12-31T22:44:50.638Z,17.75
2017-12-31T22:45:51.741Z,18.20
2017-12-31T22:46:52.837Z,18.40
2017-12-31T22:47:53.965Z,23.00
2017-12-31T22:48:55.087Z,18.62
2017-12-31T22:49:56.203Z,18.87
2017-12-31T22:50:57.321Z,18.77
2017-12-31T22:51:58.383Z,24.00
2017-12-31T22:53:00.230Z,24.33
2017-12-31T22:54:01.348Z,24.90
2017-12-31T22:55:02.415Z,18.92
2017-12-31T22:56:03.553Z,24.27
2017-12-31T22:57:05.389Z,22.35
2017-12-31T22:58:06.481Z,20.98
2017-12-31T22:59:07.585Z,31.80
2017-12-31T23:00:08.710Z,30.92
2017-12-31T23:01:09.833Z,28.12
2017-12-31T23:02:10.899Z,63.72
2017-12-31T23:03:11.979Z,54.92
2017-12-31T23:04:13.086Z,69.80
2017-12-31T23:05:14.151Z,83.90
2017-12-31T23:06:15.220Z,86.50
2017-12-31T23:07:16.311Z,91.78
2017-12-31T23:08:18.177Z,91.80
2017-12-31T23:09:19.302Z,110.75
2017-12-31T23:10:21.119Z,116.25
2017-12-31T23:11:22.221Z,135.05
2017-12-31T23:12:23.291Z,151.48
2017-12-31T23:13:24.407Z,153.00
2017-12-31T23:14:25.525Z,163.77
2017-12-31T23:15:26.594Z,144.35
2017-12-31T23:16:27.681Z,171.52
2017-12-31T23:17:28.834Z,134.55
2017-12-31T23:18:29.945Z,152.57
2017-12-31T23:19:31.799Z,151.50
2017-12-31T23:20:32.855Z,162.80
2017-12-31T23:21:33.940Z,163.43
2017-12-31T23:22:35.023Z,203.40
2017-12-31T23:23:36.099Z,214.50
2017-12-31T23:24:37.226Z,168.62
2017-12-31T23:25:38.336Z,149.05
2017-12-31T23:26:39.449Z,172.02
2017-12-31T23:27:40.570Z,174.10
2017-12-31T23:28:41.691Z,184.82
2017-12-31T23:29:42.759Z,242.68
2017-12-31T23:30:43.839Z,226.35
2017-12-31T23:31:52.075Z,199.20
2017-12-31T23:32:53.143Z,177.65
2017-12-31T23:33:54.959Z,182.70
2017-12-31T23:34:56.091Z,149.45
2017-12-31T23:35:57.171Z,181.52
2017-12-31T23:36:58.255Z,121.57
2017-12-31T23:37:59.366Z,129.00
2017-12-31T23:39:00.469Z,130.15
2017-12-31T23:40:01.532Z,126.80
2017-12-31T23:41:02.600Z,144.68
2017-12-31T23:42:03.667Z,123.85
2017-12-31T23:43:04.791Z,119.40
2017-12-31T23:44:06.587Z,138.88
2017-12-31T23:45:07.664Z,128.35
2017-12-31T23:46:08.772Z,132.30
2017-12-31T23:47:09.848Z,117.90
2017-12-31T23:48:10.960Z,123.62
2017-12-31T23:49:12.058Z,120.47
2017-12-31T23:50:13.128Z,124.05
2017-12-31T23:51:14.224Z,118.43
2017-12-31T23:52:15.342Z,100.87
2017-12-31T23:53:16.441Z,119.15
2017-12-31T23:54:17.565Z,75.85
2017-12-31T23:55:18.645Z,51.40
2017-12-31T23:56:19.716Z,47.58
2017-12-31T23:57:20.841Z,46.50
2017-12-31T23:58:21.908Z,56.08
2017-12-31T23:59:22.964Z,45.30
